sensor_id;sensor_type;location;lat;lon;timestamp;pressure;altitude;pressure_sealevel;temperature;humidity
72570;BME280;60594;50.204;8.844;2024-02-28T00:00:25;100170.09;;;4.47;100.00
72570;BME280;60594;50.204;8.844;2024-02-28T00:03:31;100169.00;;;4.36;100.00
72570;BME280;60594;50.204;8.844;2024-02-28T00:06:19;100177.09;;;4.33;100.00
72570;BME280;60594;50.204;8.844;2024-02-28T00:09:04;100177.91;;;4.33;100.00
72570;BME280;60594;50.204;8.844;2024-02-28T00:11:50;100171.19;;;4.28;100.00
72570;BME280;60594;50.204;8.844;2024-02-28T00:14:37;100181.00;;;4.26;100.00
72570;BME280;60594;50.204;8.844;2024-02-28T00:17:25;100175.22;;;4.19;100.00
72570;BME280;60594;50.204;8.844;2024-02-28T00:20:10;100176.06;;;4.04;100.00
72570;BME280;60594;50.204;8.844;2024-02-28T00:22:56;100181.13;;;3.92;100.00
72570;BME280;60594;50.204;8.844;2024-02-28T00:25:41;100183.34;;;3.99;100.00
72570;BME280;60594;50.204;8.844;2024-02-28T00:28:27;100192.09;;;4.00;100.00
72570;BME280;60594;50.204;8.844;2024-02-28T00:31:12;100182.75;;;3.94;100.00
72570;BME280;60594;50.204;8.844;2024-02-28T00:34:02;100190.03;;;3.89;100.00
72570;BME280;60594;50.204;8.844;2024-02-28T00:36:47;100193.44;;;3.91;100.00
72570;BME280;60594;50.204;8.844;2024-02-28T00:39:32;100192.78;;;4.03;100.00
72570;BME280;60594;50.204;8.844;2024-02-28T00:42:17;100196.19;;;4.05;100.00
72570;BME280;60594;50.204;8.844;2024-02-28T00:45:03;100197.13;;;4.04;100.00
72570;BME280;60594;50.204;8.844;2024-02-28T00:47:49;100196.94;;;4.07;100.00
72570;BME280;60594;50.204;8.844;2024-02-28T00:50:35;100206.50;;;4.10;100.00
72570;BME280;60594;50.204;8.844;2024-02-28T00:53:20;100204.78;;;4.09;100.00
72570;BME280;60594;50.204;8.844;2024-02-28T00:56:07;100205.72;;;4.08;100.00
72570;BME280;60594;50.204;8.844;2024-02-28T00:58:55;100205.97;;;4.03;100.00
72570;BME280;60594;50.204;8.844;2024-02-28T01:01:40;100215.69;;;4.03;100.00
72570;BME280;60594;50.204;8.844;2024-02-28T01:04:26;100207.66;;;3.89;100.00
72570;BME280;60594;50.204;8.844;2024-02-28T01:07:14;100215.41;;;3.92;100.00
72570;BME280;60594;50.204;8.844;2024-02-28T01:09:59;100213.00;;;3.87;100.00
72570;BME280;60594;50.204;8.844;2024-02-28T01:12:44;100219.97;;;3.88;100.00
72570;BME280;60594;50.204;8.844;2024-02-28T01:15:29;100223.69;;;3.84;100.00
72570;BME280;60594;50.204;8.844;2024-02-28T01:18:15;100222.66;;;3.71;100.00
72570;BME280;60594;50.204;8.844;2024-02-28T01:21:00;100228.66;;;3.73;100.00
72570;BME280;60594;50.204;8.844;2024-02-28T01:23:45;100229.09;;;3.66;100.00
72570;BME280;60594;50.204;8.844;2024-02-28T01:26:32;100225.50;;;3.67;100.00
72570;BME280;60594;50.204;8.844;2024-02-28T01:29:17;100223.66;;;3.51;100.00
72570;BME280;60594;50.204;8.844;2024-02-28T01:32:02;100231.56;;;3.51;100.00
72570;BME280;60594;50.204;8.844;2024-02-28T01:34:47;100235.75;;;3.55;100.00
72570;BME280;60594;50.204;8.844;2024-02-28T01:37:32;100233.19;;;3.54;100.00
72570;BME280;60594;50.204;8.844;2024-02-28T01:40:17;100236.97;;;3.48;100.00
72570;BME280;60594;50.204;8.844;2024-02-28T01:43:08;100236.19;;;3.46;100.00
72570;BME280;60594;50.204;8.844;2024-02-28T01:45:54;100236.38;;;3.43;100.00
72570;BME280;60594;50.204;8.844;2024-02-28T01:48:39;100235.13;;;3.33;100.00
72570;BME280;60594;50.204;8.844;2024-02-28T01:51:27;100237.53;;;3.38;100.00
72570;BME280;60594;50.204;8.844;2024-02-28T01:54:12;100237.03;;;3.30;100.00
72570;BME280;60594;50.204;8.844;2024-02-28T01:56:58;100242.97;;;3.35;100.00
72570;BME280;60594;50.204;8.844;2024-02-28T01:59:46;100229.56;;;3.39;100.00
72570;BME280;60594;50.204;8.844;2024-02-28T02:02:32;100238.16;;;3.43;100.00
72570;BME280;60594;50.204;8.844;2024-02-28T02:05:20;100233.81;;;3.42;100.00
72570;BME280;60594;50.204;8.844;2024-02-28T02:08:06;100234.91;;;3.38;100.00
72570;BME280;60594;50.204;8.844;2024-02-28T02:10:51;100245.38;;;3.39;100.00
72570;BME280;60594;50.204;8.844;2024-02-28T02:13:47;100241.00;;;3.38;100.00
72570;BME280;60594;50.204;8.844;2024-02-28T02:16:32;100240.72;;;3.44;100.00
72570;BME280;60594;50.204;8.844;2024-02-28T02:19:17;100238.53;;;3.35;100.00
72570;BME280;60594;50.204;8.844;2024-02-28T02:22:03;100237.84;;;3.32;100.00
72570;BME280;60594;50.204;8.844;2024-02-28T02:24:50;100243.09;;;3.32;100.00
72570;BME280;60594;50.204;8.844;2024-02-28T02:27:37;100242.25;;;3.31;100.00
72570;BME280;60594;50.204;8.844;2024-02-28T02:30:22;100252.84;;;3.30;100.00
72570;BME280;60594;50.204;8.844;2024-02-28T02:33:07;100257.06;;;3.34;100.00
72570;BME280;60594;50.204;8.844;2024-02-28T02:35:55;100253.03;;;3.27;100.00
72570;BME280;60594;50.204;8.844;2024-02-28T02:38:40;100255.09;;;3.20;100.00
72570;BME280;60594;50.204;8.844;2024-02-28T02:41:25;100259.28;;;3.24;100.00
72570;BME280;60594;50.204;8.844;2024-02-28T02:44:10;100265.94;;;3.14;100.00
72570;BME280;60594;50.204;8.844;2024-02-28T02:46:55;100262.22;;;3.18;100.00
72570;BME280;60594;50.204;8.844;2024-02-28T02:49:40;100264.31;;;3.12;100.00
72570;BME280;60594;50.204;8.844;2024-02-28T02:52:25;100263.13;;;3.00;100.00
72570;BME280;60594;50.204;8.844;2024-02-28T02:55:10;100261.81;;;3.09;100.00
72570;BME280;60594;50.204;8.844;2024-02-28T02:57:55;100263.75;;;3.05;100.00
72570;BME280;60594;50.204;8.844;2024-02-28T03:00:40;100270.72;;;3.06;100.00
72570;BME280;60594;50.204;8.844;2024-02-28T03:03:25;100277.69;;;3.07;100.00
72570;BME280;60594;50.204;8.844;2024-02-28T03:06:09;100276.63;;;3.11;100.00
72570;BME280;60594;50.204;8.844;2024-02-28T03:08:55;100274.19;;;3.07;100.00
72570;BME280;60594;50.204;8.844;2024-02-28T03:11:39;100275.81;;;3.09;100.00
72570;BME280;60594;50.204;8.844;2024-02-28T03:14:24;100275.28;;;3.03;100.00
72570;BME280;60594;50.204;8.844;2024-02-28T03:17:09;100273.72;;;2.99;100.00
72570;BME280;60594;50.204;8.844;2024-02-28T03:19:55;100272.03;;;2.98;100.00
72570;BME280;60594;50.204;8.844;2024-02-28T03:22:40;100268.84;;;2.91;100.00
72570;BME280;60594;50.204;8.844;2024-02-28T03:25:25;100275.81;;;2.92;100.00
72570;BME280;60594;50.204;8.844;2024-02-28T03:28:10;100282.63;;;2.96;100.00
72570;BME280;60594;50.204;8.844;2024-02-28T03:30:55;100292.22;;;2.97;100.00
72570;BME280;60594;50.204;8.844;2024-02-28T03:33:40;100293.97;;;2.97;100.00
72570;BME280;60594;50.204;8.844;2024-02-28T03:36:28;100298.09;;;3.02;100.00
72570;BME280;60594;50.204;8.844;2024-02-28T03:39:13;100305.38;;;2.97;100.00
72570;BME280;60594;50.204;8.844;2024-02-28T03:41:58;100311.78;;;2.92;100.00
72570;BME280;60594;50.204;8.844;2024-02-28T03:44:43;100310.00;;;2.74;100.00
72570;BME280;60594;50.204;8.844;2024-02-28T03:47:28;100301.69;;;2.83;100.00
72570;BME280;60594;50.204;8.844;2024-02-28T03:50:13;100298.47;;;2.76;100.00
72570;BME280;60594;50.204;8.844;2024-02-28T03:52:58;100304.47;;;2.80;100.00
72570;BME280;60594;50.204;8.844;2024-02-28T03:55:43;100308.25;;;2.74;100.00
72570;BME280;60594;50.204;8.844;2024-02-28T03:58:29;100308.38;;;2.71;100.00
72570;BME280;60594;50.204;8.844;2024-02-28T04:01:13;100301.97;;;2.77;100.00
72570;BME280;60594;50.204;8.844;2024-02-28T04:03:58;100300.06;;;2.80;100.00
72570;BME280;60594;50.204;8.844;2024-02-28T04:06:43;100311.81;;;2.73;100.00
72570;BME280;60594;50.204;8.844;2024-02-28T04:09:28;100313.66;;;2.71;100.00
72570;BME280;60594;50.204;8.844;2024-02-28T04:12:13;100313.56;;;2.73;100.00
72570;BME280;60594;50.204;8.844;2024-02-28T04:14:59;100324.97;;;2.73;100.00
72570;BME280;60594;50.204;8.844;2024-02-28T04:17:43;100335.69;;;2.69;100.00
72570;BME280;60594;50.204;8.844;2024-02-28T04:20:28;100332.25;;;2.67;100.00
72570;BME280;60594;50.204;8.844;2024-02-28T04:23:13;100334.81;;;2.68;100.00
72570;BME280;60594;50.204;8.844;2024-02-28T04:25:58;100333.13;;;2.67;100.00
72570;BME280;60594;50.204;8.844;2024-02-28T04:28:43;100344.72;;;2.63;100.00
72570;BME280;60594;50.204;8.844;2024-02-28T04:31:28;100346.63;;;2.60;100.00
72570;BME280;60594;50.204;8.844;2024-02-28T04:34:12;100342.34;;;2.57;100.00
72570;BME280;60594;50.204;8.844;2024-02-28T04:36:58;100350.31;;;2.56;100.00
72570;BME280;60594;50.204;8.844;2024-02-28T04:39:42;100362.63;;;2.55;100.00
72570;BME280;60594;50.204;8.844;2024-02-28T04:42:27;100354.94;;;2.51;100.00
72570;BME280;60594;50.204;8.844;2024-02-28T04:45:12;100355.00;;;2.49;100.00
72570;BME280;60594;50.204;8.844;2024-02-28T04:47:57;100361.97;;;2.50;100.00
72570;BME280;60594;50.204;8.844;2024-02-28T04:50:42;100368.41;;;2.43;100.00
72570;BME280;60594;50.204;8.844;2024-02-28T04:53:27;100378.09;;;2.23;100.00
72570;BME280;60594;50.204;8.844;2024-02-28T04:56:12;100379.84;;;2.24;100.00
72570;BME280;60594;50.204;8.844;2024-02-28T04:58:58;100378.09;;;2.23;100.00
72570;BME280;60594;50.204;8.844;2024-02-28T05:01:43;100385.41;;;2.16;100.00
72570;BME280;60594;50.204;8.844;2024-02-28T05:04:28;100393.81;;;2.24;100.00
72570;BME280;60594;50.204;8.844;2024-02-28T05:07:12;100397.72;;;2.16;100.00
72570;BME280;60594;50.204;8.844;2024-02-28T05:09:57;100396.34;;;2.07;100.00
72570;BME280;60594;50.204;8.844;2024-02-28T05:12:42;100397.38;;;2.03;100.00
72570;BME280;60594;50.204;8.844;2024-02-28T05:15:27;100389.84;;;2.16;100.00
72570;BME280;60594;50.204;8.844;2024-02-28T05:18:12;100402.50;;;2.26;100.00
72570;BME280;60594;50.204;8.844;2024-02-28T05:20:57;100397.94;;;2.30;100.00
72570;BME280;60594;50.204;8.844;2024-02-28T05:23:42;100398.38;;;2.21;100.00
72570;BME280;60594;50.204;8.844;2024-02-28T05:26:27;100400.41;;;2.14;100.00
72570;BME280;60594;50.204;8.844;2024-02-28T05:29:12;100409.06;;;2.16;100.00
72570;BME280;60594;50.204;8.844;2024-02-28T05:31:57;100406.06;;;2.25;100.00
72570;BME280;60594;50.204;8.844;2024-02-28T05:34:42;100406.72;;;2.30;100.00
72570;BME280;60594;50.204;8.844;2024-02-28T05:37:27;100404.38;;;2.23;100.00
72570;BME280;60594;50.204;8.844;2024-02-28T05:40:12;100416.63;;;2.24;100.00
72570;BME280;60594;50.204;8.844;2024-02-28T05:42:57;100415.91;;;2.20;100.00
72570;BME280;60594;50.204;8.844;2024-02-28T05:45:42;100423.59;;;2.25;100.00
72570;BME280;60594;50.204;8.844;2024-02-28T05:48:27;100429.09;;;2.19;100.00
72570;BME280;60594;50.204;8.844;2024-02-28T05:51:12;100416.94;;;2.16;100.00
72570;BME280;60594;50.204;8.844;2024-02-28T05:53:58;100418.75;;;2.16;100.00
72570;BME280;60594;50.204;8.844;2024-02-28T05:56:42;100419.94;;;2.09;100.00
72570;BME280;60594;50.204;8.844;2024-02-28T05:59:28;100423.03;;;1.97;100.00
72570;BME280;60594;50.204;8.844;2024-02-28T06:02:12;100426.06;;;1.88;100.00
72570;BME280;60594;50.204;8.844;2024-02-28T06:04:57;100429.91;;;1.79;100.00
72570;BME280;60594;50.204;8.844;2024-02-28T06:07:42;100437.63;;;1.84;100.00
72570;BME280;60594;50.204;8.844;2024-02-28T06:10:27;100439.38;;;1.83;100.00
72570;BME280;60594;50.204;8.844;2024-02-28T06:13:13;100449.59;;;1.91;100.00
72570;BME280;60594;50.204;8.844;2024-02-28T06:15:58;100452.81;;;1.97;100.00
72570;BME280;60594;50.204;8.844;2024-02-28T06:38:04;100473.53;;;2.05;100.00
72570;BME280;60594;50.204;8.844;2024-02-28T06:40:54;100482.53;;;1.99;100.00
72570;BME280;60594;50.204;8.844;2024-02-28T06:43:39;100488.69;;;1.77;100.00
72570;BME280;60594;50.204;8.844;2024-02-28T06:46:24;100478.19;;;1.55;100.00
72570;BME280;60594;50.204;8.844;2024-02-28T06:49:12;100488.59;;;1.35;100.00
72570;BME280;60594;50.204;8.844;2024-02-28T06:52:00;100497.63;;;1.28;100.00
72570;BME280;60594;50.204;8.844;2024-02-28T06:54:46;100497.16;;;1.40;100.00
72570;BME280;60594;50.204;8.844;2024-02-28T06:57:35;100503.03;;;1.47;100.00
72570;BME280;60594;50.204;8.844;2024-02-28T07:00:21;100506.19;;;1.33;100.00
72570;BME280;60594;50.204;8.844;2024-02-28T07:03:06;100514.22;;;1.29;100.00
72570;BME280;60594;50.204;8.844;2024-02-28T07:05:55;100519.38;;;1.32;100.00
72570;BME280;60594;50.204;8.844;2024-02-28T07:08:40;100520.97;;;1.36;100.00
72570;BME280;60594;50.204;8.844;2024-02-28T07:11:25;100529.50;;;1.41;100.00
72570;BME280;60594;50.204;8.844;2024-02-28T07:14:10;100529.50;;;1.41;100.00
72570;BME280;60594;50.204;8.844;2024-02-28T07:16:55;100542.47;;;1.45;100.00
72570;BME280;60594;50.204;8.844;2024-02-28T07:19:40;100528.03;;;1.34;100.00
72570;BME280;60594;50.204;8.844;2024-02-28T07:22:25;100534.88;;;1.38;100.00
72570;BME280;60594;50.204;8.844;2024-02-28T07:25:10;100531.06;;;1.46;100.00
72570;BME280;60594;50.204;8.844;2024-02-28T07:27:59;100548.19;;;1.56;100.00
72570;BME280;60594;50.204;8.844;2024-02-28T07:30:44;100542.06;;;1.56;100.00
72570;BME280;60594;50.204;8.844;2024-02-28T07:33:35;100541.84;;;1.62;100.00
72570;BME280;60594;50.204;8.844;2024-02-28T07:36:20;100546.59;;;1.52;100.00
72570;BME280;60594;50.204;8.844;2024-02-28T07:39:05;100538.00;;;1.47;100.00
72570;BME280;60594;50.204;8.844;2024-02-28T07:42:02;100544.22;;;1.45;100.00
72570;BME280;60594;50.204;8.844;2024-02-28T07:44:47;100554.91;;;1.63;100.00
72570;BME280;60594;50.204;8.844;2024-02-28T07:47:32;100551.00;;;1.73;100.00
72570;BME280;60594;50.204;8.844;2024-02-28T07:50:18;100544.09;;;1.71;100.00
72570;BME280;60594;50.204;8.844;2024-02-28T07:53:03;100555.75;;;1.64;100.00
72570;BME280;60594;50.204;8.844;2024-02-28T07:55:48;100553.81;;;1.69;100.00
72570;BME280;60594;50.204;8.844;2024-02-28T07:58:34;100558.16;;;1.70;100.00
72570;BME280;60594;50.204;8.844;2024-02-28T08:01:19;100557.16;;;1.72;100.00
72570;BME280;60594;50.204;8.844;2024-02-28T08:04:04;100558.69;;;1.78;100.00
72570;BME280;60594;50.204;8.844;2024-02-28T08:06:48;100556.25;;;1.73;100.00
72570;BME280;60594;50.204;8.844;2024-02-28T08:09:33;100568.53;;;1.73;100.00
72570;BME280;60594;50.204;8.844;2024-02-28T08:12:19;100561.88;;;1.64;100.00
72570;BME280;60594;50.204;8.844;2024-02-28T08:15:04;100562.47;;;1.71;100.00
72570;BME280;60594;50.204;8.844;2024-02-28T08:17:50;100560.50;;;1.77;100.00
72570;BME280;60594;50.204;8.844;2024-02-28T08:20:35;100567.78;;;1.69;100.00
72570;BME280;60594;50.204;8.844;2024-02-28T08:23:20;100556.78;;;1.60;100.00
72570;BME280;60594;50.204;8.844;2024-02-28T08:26:05;100562.72;;;1.65;100.00
72570;BME280;60594;50.204;8.844;2024-02-28T08:28:50;100568.44;;;1.53;100.00
72570;BME280;60594;50.204;8.844;2024-02-28T08:31:40;100571.91;;;1.53;100.00
72570;BME280;60594;50.204;8.844;2024-02-28T08:34:26;100572.66;;;1.57;100.00
72570;BME280;60594;50.204;8.844;2024-02-28T08:37:12;100566.44;;;1.59;100.00
72570;BME280;60594;50.204;8.844;2024-02-28T08:39:57;100572.19;;;1.69;100.00
72570;BME280;60594;50.204;8.844;2024-02-28T08:42:43;100575.44;;;1.75;100.00
72570;BME280;60594;50.204;8.844;2024-02-28T08:45:28;100572.75;;;1.77;100.00
72570;BME280;60594;50.204;8.844;2024-02-28T08:48:13;100582.41;;;1.76;100.00
72570;BME280;60594;50.204;8.844;2024-02-28T08:50:58;100570.91;;;1.79;100.00
72570;BME280;60594;50.204;8.844;2024-02-28T08:53:43;100576.09;;;1.80;100.00
72570;BME280;60594;50.204;8.844;2024-02-28T08:56:27;100586.44;;;1.85;100.00
72570;BME280;60594;50.204;8.844;2024-02-28T08:59:13;100584.19;;;1.76;100.00
72570;BME280;60594;50.204;8.844;2024-02-28T09:01:57;100583.88;;;1.83;100.00
72570;BME280;60594;50.204;8.844;2024-02-28T09:04:42;100581.53;;;1.99;100.00
72570;BME280;60594;50.204;8.844;2024-02-28T09:07:27;100590.34;;;1.98;100.00
72570;BME280;60594;50.204;8.844;2024-02-28T09:10:12;100591.00;;;2.03;100.00
72570;BME280;60594;50.204;8.844;2024-02-28T09:12:57;100596.19;;;2.04;100.00
72570;BME280;60594;50.204;8.844;2024-02-28T09:15:42;100611.97;;;2.04;100.00
72570;BME280;60594;50.204;8.844;2024-02-28T09:18:27;100617.81;;;2.11;100.00
72570;BME280;60594;50.204;8.844;2024-02-28T09:21:12;100615.81;;;2.17;100.00
72570;BME280;60594;50.204;8.844;2024-02-28T09:23:57;100609.59;;;2.20;100.00
72570;BME280;60594;50.204;8.844;2024-02-28T09:26:42;100614.59;;;2.26;100.00
72570;BME280;60594;50.204;8.844;2024-02-28T09:29:28;100609.88;;;2.34;100.00
72570;BME280;60594;50.204;8.844;2024-02-28T09:32:13;100601.03;;;2.36;100.00
72570;BME280;60594;50.204;8.844;2024-02-28T09:34:59;100608.47;;;2.47;100.00
72570;BME280;60594;50.204;8.844;2024-02-28T09:37:44;100611.03;;;2.48;100.00
72570;BME280;60594;50.204;8.844;2024-02-28T09:40:30;100616.25;;;2.50;100.00
72570;BME280;60594;50.204;8.844;2024-02-28T09:43:20;100619.34;;;2.59;100.00
72570;BME280;60594;50.204;8.844;2024-02-28T09:46:08;100615.56;;;2.66;100.00
72570;BME280;60594;50.204;8.844;2024-02-28T09:48:58;100620.22;;;2.80;100.00
72570;BME280;60594;50.204;8.844;2024-02-28T09:51:44;100618.13;;;2.88;100.00
72570;BME280;60594;50.204;8.844;2024-02-28T09:54:30;100614.25;;;2.96;100.00
72570;BME280;60594;50.204;8.844;2024-02-28T09:57:14;100614.38;;;2.93;100.00
72570;BME280;60594;50.204;8.844;2024-02-28T10:00:00;100611.69;;;2.95;100.00
72570;BME280;60594;50.204;8.844;2024-02-28T10:02:47;100616.47;;;3.05;100.00
72570;BME280;60594;50.204;8.844;2024-02-28T10:05:33;100607.53;;;2.89;100.00
72570;BME280;60594;50.204;8.844;2024-02-28T10:08:18;100608.47;;;3.08;100.00
72570;BME280;60594;50.204;8.844;2024-02-28T10:11:03;100619.91;;;3.27;100.00
72570;BME280;60594;50.204;8.844;2024-02-28T10:13:49;100615.06;;;3.37;100.00
72570;BME280;60594;50.204;8.844;2024-02-28T10:16:37;100627.41;;;3.36;100.00
72570;BME280;60594;50.204;8.844;2024-02-28T10:19:22;100622.59;;;3.46;100.00
72570;BME280;60594;50.204;8.844;2024-02-28T10:22:08;100630.75;;;3.60;100.00
72570;BME280;60594;50.204;8.844;2024-02-28T10:24:59;100641.78;;;3.68;100.00
72570;BME280;60594;50.204;8.844;2024-02-28T10:27:53;100640.34;;;3.61;100.00
72570;BME280;60594;50.204;8.844;2024-02-28T10:30:41;100656.28;;;3.58;100.00
72570;BME280;60594;50.204;8.844;2024-02-28T10:33:28;100654.59;;;3.57;100.00
72570;BME280;60594;50.204;8.844;2024-02-28T10:36:13;100659.97;;;3.54;100.00
72570;BME280;60594;50.204;8.844;2024-02-28T10:38:59;100658.22;;;3.54;100.00
72570;BME280;60594;50.204;8.844;2024-02-28T10:41:47;100654.84;;;3.51;100.00
72570;BME280;60594;50.204;8.844;2024-02-28T10:44:35;100650.88;;;3.61;100.00
72570;BME280;60594;50.204;8.844;2024-02-28T10:47:20;100661.44;;;3.61;100.00
72570;BME280;60594;50.204;8.844;2024-02-28T10:50:06;100651.75;;;3.80;100.00
72570;BME280;60594;50.204;8.844;2024-02-28T10:52:52;100659.97;;;3.93;100.00
72570;BME280;60594;50.204;8.844;2024-02-28T10:55:42;100658.63;;;4.03;100.00
72570;BME280;60594;50.204;8.844;2024-02-28T10:58:34;100659.47;;;4.03;100.00
72570;BME280;60594;50.204;8.844;2024-02-28T11:01:21;100647.28;;;4.01;100.00
72570;BME280;60594;50.204;8.844;2024-02-28T11:04:06;100648.38;;;4.15;100.00
72570;BME280;60594;50.204;8.844;2024-02-28T11:06:54;100658.41;;;4.26;100.00
72570;BME280;60594;50.204;8.844;2024-02-28T11:09:40;100651.91;;;4.33;100.00
72570;BME280;60594;50.204;8.844;2024-02-28T11:12:29;100664.03;;;4.37;100.00
72570;BME280;60594;50.204;8.844;2024-02-28T11:15:16;100665.72;;;4.38;100.00
72570;BME280;60594;50.204;8.844;2024-02-28T11:18:09;100670.66;;;4.27;100.00
72570;BME280;60594;50.204;8.844;2024-02-28T11:20:54;100663.41;;;4.13;100.00
72570;BME280;60594;50.204;8.844;2024-02-28T11:23:40;100663.06;;;4.21;100.00
72570;BME280;60594;50.204;8.844;2024-02-28T11:26:25;100665.94;;;4.33;100.00
72570;BME280;60594;50.204;8.844;2024-02-28T11:29:11;100665.03;;;4.34;100.00
72570;BME280;60594;50.204;8.844;2024-02-28T11:31:56;100663.66;;;4.44;100.00
72570;BME280;60594;50.204;8.844;2024-02-28T11:34:42;100663.03;;;4.39;100.00
72570;BME280;60594;50.204;8.844;2024-02-28T11:37:28;100657.84;;;4.19;100.00
72570;BME280;60594;50.204;8.844;2024-02-28T11:40:13;100657.06;;;4.36;100.00
72570;BME280;60594;50.204;8.844;2024-02-28T11:43:00;100660.72;;;4.50;100.00
72570;BME280;60594;50.204;8.844;2024-02-28T11:45:48;100655.84;;;4.60;100.00
72570;BME280;60594;50.204;8.844;2024-02-28T11:48:33;100658.41;;;4.80;100.00
72570;BME280;60594;50.204;8.844;2024-02-28T11:51:18;100652.50;;;4.92;100.00
72570;BME280;60594;50.204;8.844;2024-02-28T11:54:04;100646.19;;;4.94;100.00
72570;BME280;60594;50.204;8.844;2024-02-28T11:56:49;100644.75;;;5.06;100.00
72570;BME280;60594;50.204;8.844;2024-02-28T11:59:34;100644.09;;;5.18;100.00
72570;BME280;60594;50.204;8.844;2024-02-28T12:02:22;100645.88;;;5.17;100.00
72570;BME280;60594;50.204;8.844;2024-02-28T12:05:10;100649.69;;;5.29;100.00
72570;BME280;60594;50.204;8.844;2024-02-28T12:07:55;100642.91;;;5.40;100.00
72570;BME280;60594;50.204;8.844;2024-02-28T12:10:40;100638.03;;;5.50;100.00
72570;BME280;60594;50.204;8.844;2024-02-28T12:13:26;100641.84;;;5.77;100.00
72570;BME280;60594;50.204;8.844;2024-02-28T12:16:12;100632.41;;;5.88;100.00
72570;BME280;60594;50.204;8.844;2024-02-28T12:18:58;100632.31;;;5.90;100.00
72570;BME280;60594;50.204;8.844;2024-02-28T12:21:43;100629.13;;;6.00;99.58
72570;BME280;60594;50.204;8.844;2024-02-28T12:24:28;100617.00;;;5.96;99.45
72570;BME280;60594;50.204;8.844;2024-02-28T12:27:12;100624.91;;;6.12;100.00
72570;BME280;60594;50.204;8.844;2024-02-28T12:29:57;100616.13;;;6.27;97.60
72570;BME280;60594;50.204;8.844;2024-02-28T12:32:42;100606.75;;;6.37;100.00
72570;BME280;60594;50.204;8.844;2024-02-28T12:35:27;100608.19;;;6.58;100.00
72570;BME280;60594;50.204;8.844;2024-02-28T12:38:12;100605.44;;;6.59;98.06
72570;BME280;60594;50.204;8.844;2024-02-28T12:40:59;100593.28;;;6.71;95.84
72570;BME280;60594;50.204;8.844;2024-02-28T12:43:44;100591.41;;;6.73;93.99
72570;BME280;60594;50.204;8.844;2024-02-28T12:46:29;100596.94;;;6.84;96.38
72570;BME280;60594;50.204;8.844;2024-02-28T12:49:14;100595.81;;;6.88;96.06
72570;BME280;60594;50.204;8.844;2024-02-28T12:51:59;100592.88;;;6.92;96.91
72570;BME280;60594;50.204;8.844;2024-02-28T12:54:44;100590.25;;;6.92;96.06
72570;BME280;60594;50.204;8.844;2024-02-28T12:57:29;100585.78;;;6.93;95.45
72570;BME280;60594;50.204;8.844;2024-02-28T13:00:14;100575.09;;;6.94;94.38
72570;BME280;60594;50.204;8.844;2024-02-28T13:02:59;100579.34;;;6.97;94.14
72570;BME280;60594;50.204;8.844;2024-02-28T13:05:44;100572.09;;;6.71;95.61
72570;BME280;60594;50.204;8.844;2024-02-28T13:08:28;100571.00;;;6.89;97.46
72570;BME280;60594;50.204;8.844;2024-02-28T13:11:13;100565.56;;;7.06;95.46
72570;BME280;60594;50.204;8.844;2024-02-28T13:13:58;100562.94;;;7.20;94.35
72570;BME280;60594;50.204;8.844;2024-02-28T13:16:44;100559.44;;;7.20;95.17
72570;BME280;60594;50.204;8.844;2024-02-28T13:19:29;100559.06;;;7.40;94.02
72570;BME280;60594;50.204;8.844;2024-02-28T13:22:14;100562.19;;;7.46;91.45
72570;BME280;60594;50.204;8.844;2024-02-28T13:24:59;100559.50;;;6.90;95.36
72570;BME280;60594;50.204;8.844;2024-02-28T13:27:45;100546.22;;;6.76;98.30
72570;BME280;60594;50.204;8.844;2024-02-28T13:30:31;100550.69;;;6.89;96.49
72570;BME280;60594;50.204;8.844;2024-02-28T13:33:15;100547.88;;;7.07;96.46
72570;BME280;60594;50.204;8.844;2024-02-28T13:36:00;100551.16;;;6.96;96.22
72570;BME280;60594;50.204;8.844;2024-02-28T13:38:45;100540.00;;;6.91;95.83
72570;BME280;60594;50.204;8.844;2024-02-28T13:41:30;100545.69;;;6.69;97.12
72570;BME280;60594;50.204;8.844;2024-02-28T13:44:15;100545.00;;;6.81;96.56
72570;BME280;60594;50.204;8.844;2024-02-28T13:47:00;100536.13;;;6.96;95.63
72570;BME280;60594;50.204;8.844;2024-02-28T13:49:45;100534.16;;;7.14;95.37
72570;BME280;60594;50.204;8.844;2024-02-28T13:52:30;100536.91;;;7.27;94.41
72570;BME280;60594;50.204;8.844;2024-02-28T13:55:15;100531.44;;;7.30;93.44
72570;BME280;60594;50.204;8.844;2024-02-28T13:57:59;100524.91;;;7.35;93.89
72570;BME280;60594;50.204;8.844;2024-02-28T14:00:45;100532.84;;;7.49;93.20
72570;BME280;60594;50.204;8.844;2024-02-28T14:03:31;100538.03;;;7.51;92.55
72570;BME280;60594;50.204;8.844;2024-02-28T14:06:16;100524.41;;;7.57;90.94
72570;BME280;60594;50.204;8.844;2024-02-28T14:09:01;100527.63;;;7.48;91.97
72570;BME280;60594;50.204;8.844;2024-02-28T14:11:45;100523.63;;;7.69;91.19
72570;BME280;60594;50.204;8.844;2024-02-28T14:14:31;100529.00;;;7.81;90.57
72570;BME280;60594;50.204;8.844;2024-02-28T14:17:15;100520.28;;;7.93;89.03
72570;BME280;60594;50.204;8.844;2024-02-28T14:20:01;100514.59;;;7.85;85.64
72570;BME280;60594;50.204;8.844;2024-02-28T14:22:46;100515.81;;;7.94;88.55
72570;BME280;60594;50.204;8.844;2024-02-28T14:25:31;100510.66;;;8.05;84.81
72570;BME280;60594;50.204;8.844;2024-02-28T14:28:15;100511.78;;;8.15;80.68
72570;BME280;60594;50.204;8.844;2024-02-28T14:31:02;100515.75;;;8.22;77.48
72570;BME280;60594;50.204;8.844;2024-02-28T14:33:46;100512.69;;;8.28;79.54
72570;BME280;60594;50.204;8.844;2024-02-28T14:36:31;100508.28;;;8.41;80.47
72570;BME280;60594;50.204;8.844;2024-02-28T14:39:16;100510.22;;;8.51;77.00
72570;BME280;60594;50.204;8.844;2024-02-28T14:42:02;100514.38;;;8.55;77.13
72570;BME280;60594;50.204;8.844;2024-02-28T14:44:47;100511.00;;;8.13;75.63
72570;BME280;60594;50.204;8.844;2024-02-28T14:47:32;100504.00;;;8.12;74.60